Terminal Aerodrome Forecast
Issued by NWS Knoxville/Tri Cities, TN

Home | Current Version | Previous Version | Text Only | Print | Product List | Glossary On
Versions: 1 2 3 4 5 6 7 8 9 10 11 12 13 14 15 16 17 18 19 20 21 22 23 24 25 26 27 28 29 30 31 32 33 34 35 36 37 38 39 40 41
000
FTUS44 KMRX 090727 AAB
TAFTRI
TAF AMD
KTRI 090727Z 0907/1006 26008KT 4SM -SHSN BR BKN025 OVC030
     FM090800 26009KT 4SM -SHSN BR OVC015
     FM091200 26010KT P6SM -SHSN OVC020
     FM091500 26010G18KT P6SM OVC050
     FM092100 26010KT P6SM BKN025=

USA.gov is the U.S. government's official web portal to all federal, state and local government web resources and services.